Decoded Metar for KDRT (DEL RIO in TX, USA) (IATA:DRT) | Meteo·Mobile Aviation Weather
aviador You're here:

KDRT Decoded Metar

DEL RIO in TX, USA
Report Time2018-12-19 16:35:00
UTC Time2018-12-19 16:44:49
Flight Rules ifr IFR
WindVRB at 05 kt
Visibility9999 m
Phenomena:N/A
Clouds:Broken 005 Hf
Overcast 008 Hf
Ceiling500 ft
Temp11°C (ISA -2)
Dew Point11°C (100% RH)
AAT9.5°C
QNH1013 hPa
Density Alt974 ft
Elevation1,027 ft
Report Wrong Elevation
Raw Report
KDRT 191635Z AUTO VRB05KT 9SM BKN005 OVC008 11/11 A2990=

Extra information for KDRT:More info

Metar Taf Metar & Taf Last 4 Metars F.Rules Stats Wind Profile Meteogram Temp Stats Airport Information Weather charts Add Link Nearby VenuesMetar ALERT Operation Metar Decoded Social comments

AIRNAV info for KDRT